Time;durP1;ratioP1;P1;durP2;ratioP2;P2;SDS_P1;SDS_P2;PMS_P1;PMS_P2;Temp;Humidity;BMP_temperature;BMP_pressure;BME280_temperature;BME280_humidity;BME280_pressure;Samples;Min_cycle;Max_cycle;Signal;HPM_P1;HPM_P2
2023/05/28 00:00:03;;;;;;;5.20;2.50;;;;;;;;;;107469;282;175560;-40
2023/05/28 00:03:06;;;;;;;5.00;2.50;;;;;;;;;;107445;285;43143;-40
2023/05/28 00:05:43;;;;;;;4.60;2.60;;;;;;;;;;107562;283;42242;-40
2023/05/28 00:08:19;;;;;;;5.90;2.50;;;;;;;;;;107526;286;44446;-40
2023/05/28 00:10:59;;;;;;;5.10;2.80;;;;;;;;;;107533;286;40966;-40
2023/05/28 00:13:35;;;;;;;4.70;2.40;;;;;;;;;;107605;286;43158;-40
2023/05/28 00:16:12;;;;;;;4.90;2.60;;;;;;;;;;107552;286;43310;-40
2023/05/28 00:18:47;;;;;;;5.00;2.60;;;;;;;;;;107525;286;46071;-40
2023/05/28 00:21:26;;;;;;;5.20;2.50;;;;;;;;;;107608;286;39726;-40
2023/05/28 00:24:03;;;;;;;5.60;2.70;;;;;;;;;;107613;283;42949;-40
2023/05/28 00:26:39;;;;;;;4.80;2.90;;;;;;;;;;107503;279;43359;-40
2023/05/28 00:29:14;;;;;;;5.40;2.80;;;;;;;;;;107588;286;38773;-40
2023/05/28 00:31:51;;;;;;;5.10;2.80;;;;;;;;;;107603;286;40255;-40
2023/05/28 00:34:26;;;;;;;5.90;3.10;;;;;;;;;;107572;283;42981;-40
2023/05/28 00:37:00;;;;;;;5.30;2.90;;;;;;;;;;107509;286;43331;-40
2023/05/28 00:39:35;;;;;;;5.10;2.90;;;;;;;;;;107663;286;39040;-40
2023/05/28 00:42:15;;;;;;;5.10;2.80;;;;;;;;;;107628;286;39705;-40
2023/05/28 00:44:52;;;;;;;5.60;2.90;;;;;;;;;;107558;283;43166;-40
2023/05/28 00:47:30;;;;;;;5.50;3.10;;;;;;;;;;107543;286;42057;-40
2023/05/28 00:50:08;;;;;;;5.30;3.10;;;;;;;;;;107625;283;39310;-40
2023/05/28 00:52:48;;;;;;;5.20;3.30;;;;;;;;;;107549;286;39472;-40
2023/05/28 00:55:26;;;;;;;5.30;3.20;;;;;;;;;;107622;286;44066;-40
2023/05/28 00:58:05;;;;;;;6.60;3.70;;;;;;;;;;107537;286;41869;-40
2023/05/28 01:00:43;;;;;;;5.40;3.40;;;;;;;;;;107554;286;39839;-40
2023/05/28 01:03:19;;;;;;;5.60;3.50;;;;;;;;;;107623;286;40832;-40
2023/05/28 01:05:52;;;;;;;5.50;3.50;;;;;;;;;;107612;286;44288;-41
2023/05/28 01:08:29;;;;;;;6.20;3.60;;;;;;;;;;107472;286;43357;-40
2023/05/28 01:11:03;;;;;;;5.30;3.50;;;;;;;;;;107486;287;38514;-40
2023/05/28 01:13:38;;;;;;;5.80;3.50;;;;;;;;;;107584;283;40917;-40
2023/05/28 01:16:14;;;;;;;6.80;3.40;;;;;;;;;;107148;286;579382;-41
2023/05/28 01:18:54;;;;;;;5.80;3.70;;;;;;;;;;107373;286;195405;-40
2023/05/28 01:21:32;;;;;;;5.70;3.60;;;;;;;;;;107558;286;38726;-40
2023/05/28 01:24:08;;;;;;;5.30;3.70;;;;;;;;;;107601;286;40739;-40
2023/05/28 01:26:42;;;;;;;6.10;3.90;;;;;;;;;;107540;283;43689;-40
2023/05/28 01:29:23;;;;;;;5.30;3.80;;;;;;;;;;107559;286;42170;-40
2023/05/28 01:31:59;;;;;;;6.00;4.00;;;;;;;;;;107575;286;39017;-42
2023/05/28 01:34:37;;;;;;;5.70;3.90;;;;;;;;;;107514;286;39714;-40
2023/05/28 01:37:17;;;;;;;5.80;4.00;;;;;;;;;;107563;286;42937;-40
2023/05/28 01:39:53;;;;;;;6.00;4.00;;;;;;;;;;107522;286;42202;-42
2023/05/28 01:42:34;;;;;;;5.90;3.90;;;;;;;;;;107559;286;40055;-40
2023/05/28 01:45:13;;;;;;;6.20;4.30;;;;;;;;;;107547;286;39683;-40
2023/05/28 01:47:47;;;;;;;6.00;4.10;;;;;;;;;;107569;286;44299;-40
2023/05/28 01:50:22;;;;;;;6.10;4.20;;;;;;;;;;107505;283;42176;-40
2023/05/28 01:52:59;;;;;;;5.40;4.00;;;;;;;;;;107521;286;38832;-40
2023/05/28 01:55:35;;;;;;;6.40;3.90;;;;;;;;;;107572;285;39834;-40
2023/05/28 01:58:11;;;;;;;6.10;4.20;;;;;;;;;;107600;286;44226;-41
2023/05/28 02:00:56;;;;;;;6.00;4.00;;;;;;;;;;107493;283;47968;-40
2023/05/28 02:03:32;;;;;;;5.90;4.20;;;;;;;;;;107590;283;38786;-41
2023/05/28 02:06:09;;;;;;;6.10;4.30;;;;;;;;;;107588;283;40870;-42
2023/05/28 02:08:43;;;;;;;5.90;4.10;;;;;;;;;;107487;283;45304;-40
2023/05/28 02:11:18;;;;;;;6.10;4.30;;;;;;;;;;107569;286;49322;-40
2023/05/28 02:13:52;;;;;;;6.00;4.50;;;;;;;;;;107580;286;38800;-40
2023/05/28 02:16:28;;;;;;;6.10;4.50;;;;;;;;;;107537;281;40982;-40
2023/05/28 02:19:03;;;;;;;6.70;4.70;;;;;;;;;;107512;286;44131;-40
2023/05/28 02:21:39;;;;;;;6.30;4.30;;;;;;;;;;107584;283;49700;-41
2023/05/28 02:24:14;;;;;;;6.20;4.50;;;;;;;;;;107615;285;40002;-40
2023/05/28 02:26:48;;;;;;;6.30;4.50;;;;;;;;;;107543;278;39782;-40
2023/05/28 02:29:23;;;;;;;6.20;4.70;;;;;;;;;;107547;285;42884;-40
2023/05/28 02:31:57;;;;;;;6.40;4.70;;;;;;;;;;107585;283;48130;-40
2023/05/28 02:34:32;;;;;;;6.40;4.80;;;;;;;;;;107546;286;38895;-40
2023/05/28 02:37:10;;;;;;;6.50;4.70;;;;;;;;;;107559;286;40028;-40
2023/05/28 02:39:47;;;;;;;6.60;4.70;;;;;;;;;;107523;286;43004;-40
2023/05/28 02:42:21;;;;;;;6.80;5.00;;;;;;;;;;107562;286;42256;-40
2023/05/28 02:44:59;;;;;;;6.70;5.20;;;;;;;;;;107574;283;38918;-40
2023/05/28 02:47:35;;;;;;;6.90;5.20;;;;;;;;;;107575;286;39958;-40
2023/05/28 02:50:11;;;;;;;6.30;5.10;;;;;;;;;;107519;286;42936;-41
2023/05/28 02:52:45;;;;;;;6.90;4.90;;;;;;;;;;107590;286;42144;-40
2023/05/28 02:55:19;;;;;;;7.60;5.10;;;;;;;;;;107545;283;38823;-40
2023/05/28 02:57:54;;;;;;;6.30;4.90;;;;;;;;;;107538;286;39736;-40
2023/05/28 03:00:28;;;;;;;7.00;5.00;;;;;;;;;;107553;286;43022;-40
2023/05/28 03:03:06;;;;;;;6.70;5.40;;;;;;;;;;107562;285;42261;-40
2023/05/28 03:05:43;;;;;;;6.70;5.40;;;;;;;;;;107544;286;38982;-40
2023/05/28 03:08:18;;;;;;;7.60;5.70;;;;;;;;;;107581;283;39739;-40
2023/05/28 03:10:51;;;;;;;7.30;5.50;;;;;;;;;;107481;285;42636;-40
2023/05/28 03:13:25;;;;;;;7.20;5.40;;;;;;;;;;107569;285;42295;-40
2023/05/28 03:16:01;;;;;;;6.70;5.50;;;;;;;;;;107557;283;38867;-41
2023/05/28 03:18:38;;;;;;;7.20;5.30;;;;;;;;;;107533;286;39848;-40
2023/05/28 03:21:12;;;;;;;7.00;5.30;;;;;;;;;;107521;283;44370;-40
2023/05/28 03:23:46;;;;;;;6.90;5.40;;;;;;;;;;107602;283;42179;-40
2023/05/28 03:26:21;;;;;;;7.70;5.70;;;;;;;;;;107553;283;38959;-40
2023/05/28 03:28:56;;;;;;;7.00;5.80;;;;;;;;;;107649;285;39707;-40
2023/05/28 03:31:35;;;;;;;7.00;6.00;;;;;;;;;;107572;285;42940;-40
2023/05/28 03:34:10;;;;;;;7.20;6.00;;;;;;;;;;107596;283;42190;-40
2023/05/28 03:36:44;;;;;;;7.30;5.50;;;;;;;;;;107497;283;38825;-40
2023/05/28 03:39:22;;;;;;;7.30;5.60;;;;;;;;;;107571;286;41371;-40
2023/05/28 03:41:58;;;;;;;7.70;6.00;;;;;;;;;;107543;286;42881;-40
2023/05/28 03:44:37;;;;;;;7.30;5.90;;;;;;;;;;107531;285;42715;-40
2023/05/28 03:47:10;;;;;;;7.20;5.80;;;;;;;;;;107565;283;38645;-39
2023/05/28 03:49:47;;;;;;;6.80;5.50;;;;;;;;;;107545;283;39727;-39
2023/05/28 03:52:23;;;;;;;9.30;6.50;;;;;;;;;;107475;286;44106;-39
2023/05/28 03:54:57;;;;;;;7.30;6.10;;;;;;;;;;107418;284;42281;-39
2023/05/28 03:57:32;;;;;;;8.20;6.20;;;;;;;;;;107565;286;38758;-39
2023/05/28 04:00:10;;;;;;;7.60;5.80;;;;;;;;;;107605;283;39844;-39
2023/05/28 04:02:43;;;;;;;7.40;6.00;;;;;;;;;;107487;286;43978;-39
2023/05/28 04:05:20;;;;;;;7.80;6.00;;;;;;;;;;107556;286;42169;-39
2023/05/28 04:07:57;;;;;;;7.30;6.10;;;;;;;;;;107548;286;38560;-39
2023/05/28 04:10:31;;;;;;;8.70;6.30;;;;;;;;;;107556;286;39751;-39
2023/05/28 04:13:05;;;;;;;8.00;6.00;;;;;;;;;;107576;283;44457;-39
2023/05/28 04:15:41;;;;;;;7.20;5.90;;;;;;;;;;107580;290;42140;-40
2023/05/28 04:18:15;;;;;;;7.80;6.30;;;;;;;;;;107552;283;38717;-40
2023/05/28 04:20:50;;;;;;;7.50;6.10;;;;;;;;;;107611;286;40854;-40
2023/05/28 04:23:25;;;;;;;7.20;5.90;;;;;;;;;;107484;286;42890;-40
2023/05/28 04:26:01;;;;;;;6.80;5.80;;;;;;;;;;107588;286;43305;-41
2023/05/28 04:28:34;;;;;;;7.80;5.90;;;;;;;;;;107615;286;40697;-42
2023/05/28 04:31:10;;;;;;;7.40;6.20;;;;;;;;;;107521;283;40853;-40
2023/05/28 04:33:46;;;;;;;7.80;6.00;;;;;;;;;;107493;283;42701;-39
2023/05/28 04:36:19;;;;;;;7.40;6.10;;;;;;;;;;107602;283;41916;-39
2023/05/28 04:38:54;;;;;;;7.30;5.90;;;;;;;;;;107368;287;38748;-41
2023/05/28 04:41:28;;;;;;;7.40;5.80;;;;;;;;;;107652;286;40159;-40
2023/05/28 04:44:03;;;;;;;7.00;6.10;;;;;;;;;;107556;286;42903;-39
2023/05/28 04:46:39;;;;;;;7.40;5.90;;;;;;;;;;107517;286;42112;-40
2023/05/28 04:49:13;;;;;;;7.50;5.70;;;;;;;;;;107559;286;38928;-40
2023/05/28 04:51:47;;;;;;;8.50;6.10;;;;;;;;;;107433;286;175608;-41
2023/05/28 04:54:21;;;;;;;7.50;6.00;;;;;;;;;;107525;286;42641;-40
2023/05/28 04:56:55;;;;;;;7.60;5.70;;;;;;;;;;107479;284;42096;-40
2023/05/28 04:59:30;;;;;;;7.20;5.80;;;;;;;;;;107582;286;38773;-40
2023/05/28 05:02:06;;;;;;;7.30;5.70;;;;;;;;;;107598;286;39806;-39
2023/05/28 05:04:40;;;;;;;8.10;6.00;;;;;;;;;;107504;282;42663;-40
2023/05/28 05:07:14;;;;;;;7.50;5.40;;;;;;;;;;107584;286;42258;-40
2023/05/28 05:09:48;;;;;;;7.40;5.90;;;;;;;;;;107580;285;39102;-39
2023/05/28 05:12:23;;;;;;;7.80;5.50;;;;;;;;;;107530;286;39719;-39
2023/05/28 05:14:58;;;;;;;6.80;5.50;;;;;;;;;;107404;286;44660;-39
2023/05/28 05:17:33;;;;;;;7.40;5.40;;;;;;;;;;107587;283;43370;-39
2023/05/28 05:20:09;;;;;;;7.10;5.50;;;;;;;;;;107595;286;39907;-39
2023/05/28 05:22:43;;;;;;;8.20;5.60;;;;;;;;;;107540;286;39797;-40
2023/05/28 05:25:16;;;;;;;7.30;5.70;;;;;;;;;;107527;286;50792;-40
2023/05/28 05:27:51;;;;;;;8.50;5.40;;;;;;;;;;107560;286;41918;-40
2023/05/28 05:30:25;;;;;;;7.60;5.40;;;;;;;;;;107432;284;40054;-39
2023/05/28 05:32:58;;;;;;;8.00;5.70;;;;;;;;;;107339;285;39750;-39
2023/05/28 05:35:31;;;;;;;7.60;5.50;;;;;;;;;;107445;282;50625;-39
2023/05/28 05:38:05;;;;;;;7.30;5.40;;;;;;;;;;107453;286;43310;-40
2023/05/28 05:40:38;;;;;;;7.50;5.20;;;;;;;;;;107365;288;38759;-40
2023/05/28 05:43:12;;;;;;;7.30;5.20;;;;;;;;;;107522;286;39691;-40
2023/05/28 05:45:45;;;;;;;7.60;5.00;;;;;;;;;;107429;284;48724;-39
2023/05/28 05:48:22;;;;;;;7.20;5.30;;;;;;;;;;107428;284;43305;-40
2023/05/28 05:50:57;;;;;;;6.80;4.80;;;;;;;;;;107316;286;39951;-39
2023/05/28 05:53:31;;;;;;;7.40;4.90;;;;;;;;;;107465;282;39682;-40
2023/05/28 05:56:05;;;;;;;6.90;4.90;;;;;;;;;;107442;285;48838;-39
2023/05/28 05:58:38;;;;;;;7.80;4.90;;;;;;;;;;107437;284;42190;-40
2023/05/28 06:01:18;;;;;;;7.20;4.70;;;;;;;;;;107524;286;38868;-40
2023/05/28 06:03:51;;;;;;;6.60;4.70;;;;;;;;;;107453;286;39702;-39
2023/05/28 06:06:26;;;;;;;7.50;4.80;;;;;;;;;;107427;285;49602;-40
2023/05/28 06:09:00;;;;;;;8.20;4.50;;;;;;;;;;107345;288;42201;-39
2023/05/28 06:11:35;;;;;;;6.80;4.30;;;;;;;;;;107483;286;38790;-39
2023/05/28 06:14:11;;;;;;;7.30;4.40;;;;;;;;;;107524;284;39721;-39
2023/05/28 06:16:44;;;;;;;7.70;4.60;;;;;;;;;;107376;283;49718;-40
2023/05/28 06:19:22;;;;;;;6.80;4.20;;;;;;;;;;107436;279;42468;-39
2023/05/28 06:21:57;;;;;;;6.70;4.10;;;;;;;;;;107455;286;38784;-40
2023/05/28 06:24:30;;;;;;;6.90;4.20;;;;;;;;;;107513;285;39704;-41
2023/05/28 06:27:05;;;;;;;6.10;3.80;;;;;;;;;;107366;287;49825;-39
2023/05/28 06:29:41;;;;;;;6.30;4.10;;;;;;;;;;107558;286;42139;-40
2023/05/28 06:32:14;;;;;;;6.90;4.20;;;;;;;;;;107592;286;38998;-40
2023/05/28 06:34:48;;;;;;;7.10;4.00;;;;;;;;;;107543;283;39464;-40
2023/05/28 06:37:22;;;;;;;6.20;3.70;;;;;;;;;;107543;283;51144;-40
2023/05/28 06:39:58;;;;;;;6.20;3.60;;;;;;;;;;107561;283;42114;-40
2023/05/28 06:42:31;;;;;;;6.20;3.90;;;;;;;;;;107416;285;177259;-42
2023/05/28 06:45:06;;;;;;;6.20;3.70;;;;;;;;;;107570;286;39496;-41
2023/05/28 06:47:40;;;;;;;6.30;3.60;;;;;;;;;;107668;286;50979;-41
2023/05/28 06:50:15;;;;;;;6.00;3.30;;;;;;;;;;107607;285;42192;-41
2023/05/28 06:52:49;;;;;;;6.70;3.50;;;;;;;;;;107570;283;39821;-40
2023/05/28 06:55:23;;;;;;;6.20;3.80;;;;;;;;;;107571;283;41026;-40
2023/05/28 06:57:59;;;;;;;5.80;3.20;;;;;;;;;;107519;286;49025;-40
2023/05/28 07:00:33;;;;;;;6.20;3.10;;;;;;;;;;107568;286;42184;-40
2023/05/28 07:03:08;;;;;;;5.90;3.20;;;;;;;;;;107367;286;38807;-40
2023/05/28 07:05:42;;;;;;;5.60;3.00;;;;;;;;;;107547;286;39976;-40
2023/05/28 07:08:16;;;;;;;6.50;3.00;;;;;;;;;;107535;286;49878;-40
2023/05/28 07:10:49;;;;;;;5.70;3.00;;;;;;;;;;107528;285;42125;-40
2023/05/28 07:13:24;;;;;;;5.40;2.90;;;;;;;;;;107576;286;38899;-40
2023/05/28 07:15:59;;;;;;;5.60;3.10;;;;;;;;;;107586;286;40287;-40
2023/05/28 07:18:33;;;;;;;5.20;2.70;;;;;;;;;;107527;286;48524;-40
2023/05/28 07:21:07;;;;;;;5.40;2.90;;;;;;;;;;107552;286;42435;-40
2023/05/28 07:23:44;;;;;;;5.50;2.80;;;;;;;;;;107580;283;38882;-40
2023/05/28 07:26:18;;;;;;;5.00;2.80;;;;;;;;;;107532;286;39676;-40
2023/05/28 07:28:51;;;;;;;6.00;2.70;;;;;;;;;;107545;283;49975;-40
2023/05/28 07:31:26;;;;;;;4.90;2.50;;;;;;;;;;107574;286;42255;-40
2023/05/28 07:33:59;;;;;;;4.90;2.50;;;;;;;;;;107553;283;38833;-40
2023/05/28 07:36:34;;;;;;;4.30;2.50;;;;;;;;;;107599;286;39717;-40
2023/05/28 07:39:12;;;;;;;5.70;2.70;;;;;;;;;;107519;282;49455;-40
2023/05/28 07:41:45;;;;;;;5.20;2.60;;;;;;;;;;107576;283;41859;-40
2023/05/28 07:44:19;;;;;;;4.80;2.40;;;;;;;;;;107589;283;39944;-40
2023/05/28 07:46:52;;;;;;;4.80;2.40;;;;;;;;;;107545;283;39701;-39
2023/05/28 07:49:26;;;;;;;5.80;2.70;;;;;;;;;;107521;286;49753;-39
2023/05/28 07:51:59;;;;;;;4.70;2.50;;;;;;;;;;107572;286;42136;-39
2023/05/28 07:54:34;;;;;;;4.90;2.30;;;;;;;;;;107531;286;38961;-40
2023/05/28 07:57:08;;;;;;;4.60;2.30;;;;;;;;;;107574;283;39705;-39
2023/05/28 07:59:42;;;;;;;4.70;2.20;;;;;;;;;;107613;286;48447;-39
2023/05/28 08:02:17;;;;;;;4.80;2.30;;;;;;;;;;107524;283;42141;-39
2023/05/28 08:04:51;;;;;;;5.30;2.10;;;;;;;;;;107537;286;38561;-40
2023/05/28 08:07:25;;;;;;;4.80;1.90;;;;;;;;;;107574;286;39744;-39
2023/05/28 08:09:58;;;;;;;5.00;2.00;;;;;;;;;;107510;283;50138;-39
2023/05/28 08:12:31;;;;;;;3.80;1.90;;;;;;;;;;107581;286;41896;-40
2023/05/28 08:15:06;;;;;;;3.80;1.90;;;;;;;;;;107547;283;38906;-39
2023/05/28 08:17:39;;;;;;;4.50;1.90;;;;;;;;;;107626;283;39754;-39
2023/05/28 08:20:14;;;;;;;4.10;2.00;;;;;;;;;;107561;282;49621;-39
2023/05/28 08:22:47;;;;;;;3.90;1.80;;;;;;;;;;107571;286;42591;-40
2023/05/28 08:25:21;;;;;;;5.20;1.90;;;;;;;;;;106848;286;894637;-40
2023/05/28 08:27:54;;;;;;;4.50;1.70;;;;;;;;;;107567;286;40863;-40
2023/05/28 08:30:27;;;;;;;4.60;1.90;;;;;;;;;;107489;283;48815;-39
2023/05/28 08:33:01;;;;;;;4.20;1.80;;;;;;;;;;107452;286;42161;-40
2023/05/28 08:35:35;;;;;;;3.80;1.80;;;;;;;;;;107574;286;38621;-40
2023/05/28 08:38:11;;;;;;;4.80;1.90;;;;;;;;;;107613;282;39983;-39
2023/05/28 08:40:53;;;;;;;4.60;2.00;;;;;;;;;;107474;286;48591;-39
2023/05/28 08:43:27;;;;;;;4.70;1.90;;;;;;;;;;107489;283;175538;-39
2023/05/28 08:46:03;;;;;;;4.50;2.00;;;;;;;;;;107604;286;38754;-39
2023/05/28 08:48:37;;;;;;;4.40;1.90;;;;;;;;;;107512;286;39596;-39
2023/05/28 08:51:13;;;;;;;5.20;2.00;;;;;;;;;;107604;286;50210;-40
2023/05/28 08:53:50;;;;;;;4.50;1.90;;;;;;;;;;107602;286;42160;-40
2023/05/28 08:56:25;;;;;;;4.80;2.10;;;;;;;;;;107568;286;39925;-40
2023/05/28 08:58:59;;;;;;;5.40;2.40;;;;;;;;;;107481;286;39731;-41
2023/05/28 09:01:32;;;;;;;5.90;2.20;;;;;;;;;;107578;286;43037;-39
2023/05/28 09:04:07;;;;;;;7.20;2.30;;;;;;;;;;107597;286;42234;-40
2023/05/28 09:06:41;;;;;;;6.00;2.20;;;;;;;;;;107569;283;39922;-41
2023/05/28 09:09:15;;;;;;;5.50;2.50;;;;;;;;;;107579;279;39758;-39
2023/05/28 09:11:49;;;;;;;6.70;2.60;;;;;;;;;;107593;286;43367;-40
2023/05/28 09:14:23;;;;;;;7.30;2.50;;;;;;;;;;107549;283;42155;-39
2023/05/28 09:16:58;;;;;;;6.30;2.60;;;;;;;;;;106963;285;503204;-39
2023/05/28 09:19:31;;;;;;;8.30;2.70;;;;;;;;;;107463;286;39705;-40
2023/05/28 09:22:06;;;;;;;6.30;2.60;;;;;;;;;;107549;286;43047;-40
2023/05/28 09:24:40;;;;;;;5.70;2.60;;;;;;;;;;107525;286;175548;-39
2023/05/28 09:27:17;;;;;;;6.40;2.30;;;;;;;;;;107585;285;38932;-40
2023/05/28 09:29:50;;;;;;;6.00;2.30;;;;;;;;;;107437;286;175532;-40
2023/05/28 09:32:24;;;;;;;6.60;2.30;;;;;;;;;;107603;283;42952;-39
2023/05/28 09:35:00;;;;;;;6.30;2.20;;;;;;;;;;107408;279;43578;-40
2023/05/28 09:37:34;;;;;;;6.40;2.20;;;;;;;;;;107566;286;38781;-39
2023/05/28 09:40:10;;;;;;;4.60;2.00;;;;;;;;;;107579;283;40677;-40
2023/05/28 09:42:44;;;;;;;5.00;2.10;;;;;;;;;;107540;286;43162;-40
2023/05/28 09:45:26;;;;;;;5.90;2.00;;;;;;;;;;107489;286;175198;-39
2023/05/28 09:47:59;;;;;;;5.60;2.00;;;;;;;;;;107585;286;38842;-40
2023/05/28 09:50:33;;;;;;;5.30;1.70;;;;;;;;;;107501;283;39706;-39
2023/05/28 09:53:08;;;;;;;5.00;1.90;;;;;;;;;;107628;286;44120;-40
2023/05/28 09:55:42;;;;;;;5.80;2.00;;;;;;;;;;107570;283;43202;-40
2023/05/28 09:58:18;;;;;;;5.20;1.70;;;;;;;;;;107584;286;39813;-40
2023/05/28 10:00:56;;;;;;;5.60;1.70;;;;;;;;;;107505;286;39895;-40
2023/05/28 10:03:37;;;;;;;5.50;1.80;;;;;;;;;;107576;286;42837;-40
2023/05/28 10:06:17;;;;;;;4.80;1.80;;;;;;;;;;107571;286;43282;-40
2023/05/28 10:08:53;;;;;;;4.90;1.70;;;;;;;;;;107585;286;38791;-39
2023/05/28 10:11:34;;;;;;;5.80;1.60;;;;;;;;;;107520;283;40866;-40
2023/05/28 10:14:09;;;;;;;4.90;1.70;;;;;;;;;;107535;286;42911;-39
2023/05/28 10:16:44;;;;;;;5.10;1.70;;;;;;;;;;107573;286;42246;-41
2023/05/28 10:19:21;;;;;;;5.20;1.70;;;;;;;;;;107556;286;40017;-39
2023/05/28 10:21:55;;;;;;;5.00;1.80;;;;;;;;;;107535;286;40910;-41
2023/05/28 10:24:31;;;;;;;4.90;1.50;;;;;;;;;;107591;286;43994;-40
2023/05/28 10:27:08;;;;;;;3.90;1.20;;;;;;;;;;107564;286;43195;-40
2023/05/28 10:29:47;;;;;;;4.20;1.40;;;;;;;;;;107591;283;39887;-40
2023/05/28 10:32:22;;;;;;;4.20;1.30;;;;;;;;;;107581;286;41017;-41
2023/05/28 10:35:06;;;;;;;5.00;1.60;;;;;;;;;;107584;283;41882;-39
2023/05/28 10:37:40;;;;;;;4.30;1.40;;;;;;;;;;107582;286;42502;-39
2023/05/28 10:40:25;;;;;;;4.10;1.50;;;;;;;;;;107565;286;38529;-40
2023/05/28 10:43:02;;;;;;;4.00;1.20;;;;;;;;;;107513;286;39726;-40
2023/05/28 10:45:41;;;;;;;4.50;1.40;;;;;;;;;;107561;286;42930;-40
2023/05/28 10:48:18;;;;;;;4.00;1.30;;;;;;;;;;107579;283;42083;-41
2023/05/28 10:51:10;;;;;;;4.50;1.50;;;;;;;;;;107579;286;38761;-40
2023/05/28 10:53:49;;;;;;;4.30;1.70;;;;;;;;;;107649;286;46476;-40
2023/05/28 10:56:25;;;;;;;4.90;1.40;;;;;;;;;;107586;283;43205;-40
2023/05/28 10:58:59;;;;;;;4.30;1.30;;;;;;;;;;107460;284;42450;-40
2023/05/28 11:01:38;;;;;;;4.20;1.50;;;;;;;;;;107557;283;38763;-40
2023/05/28 11:04:13;;;;;;;4.90;1.40;;;;;;;;;;107603;278;47019;-40
2023/05/28 11:06:51;;;;;;;4.60;1.40;;;;;;;;;;107523;283;42933;-40
2023/05/28 11:09:28;;;;;;;4.20;1.40;;;;;;;;;;107588;283;42104;-40
2023/05/28 11:12:07;;;;;;;3.50;1.20;;;;;;;;;;107559;286;38802;-40
2023/05/28 11:14:42;;;;;;;3.50;1.30;;;;;;;;;;107561;283;39885;-40
2023/05/28 11:17:17;;;;;;;4.60;1.60;;;;;;;;;;107568;285;42872;-40
2023/05/28 11:19:54;;;;;;;3.50;1.30;;;;;;;;;;107573;283;41891;-40
2023/05/28 11:22:36;;;;;;;4.20;1.30;;;;;;;;;;107506;282;38821;-41
2023/05/28 11:25:13;;;;;;;3.40;1.10;;;;;;;;;;107625;286;40013;-40
2023/05/28 11:27:50;;;;;;;4.20;1.30;;;;;;;;;;107565;285;44018;-40
2023/05/28 11:30:27;;;;;;;3.60;1.30;;;;;;;;;;107540;286;42255;-40
2023/05/28 11:33:06;;;;;;;3.90;1.30;;;;;;;;;;107519;279;39872;-40
2023/05/28 11:35:42;;;;;;;3.20;1.20;;;;;;;;;;107585;286;39725;-40
2023/05/28 11:38:20;;;;;;;4.00;1.70;;;;;;;;;;107604;285;42929;-40
2023/05/28 11:41:02;;;;;;;4.30;1.20;;;;;;;;;;107440;285;42178;-40
2023/05/28 11:43:37;;;;;;;4.40;1.40;;;;;;;;;;107524;285;39156;-40
2023/05/28 11:46:10;;;;;;;3.60;1.40;;;;;;;;;;107595;282;39696;-40
2023/05/28 11:48:46;;;;;;;4.00;1.40;;;;;;;;;;107519;286;43855;-40
2023/05/28 11:51:24;;;;;;;3.30;1.30;;;;;;;;;;107577;286;42182;-40
2023/05/28 11:54:01;;;;;;;4.00;1.40;;;;;;;;;;107535;278;38621;-40
2023/05/28 11:56:37;;;;;;;4.50;1.20;;;;;;;;;;107547;286;39847;-42
2023/05/28 11:59:13;;;;;;;3.60;1.40;;;;;;;;;;107575;286;42821;-40
2023/05/28 12:01:51;;;;;;;3.50;1.50;;;;;;;;;;107568;286;42184;-40
2023/05/28 12:04:27;;;;;;;4.40;1.50;;;;;;;;;;107530;283;38731;-39
2023/05/28 12:07:02;;;;;;;3.60;1.30;;;;;;;;;;107335;284;175474;-40
2023/05/28 12:09:39;;;;;;;3.90;1.40;;;;;;;;;;107553;282;42900;-40
2023/05/28 12:12:15;;;;;;;3.70;1.40;;;;;;;;;;107542;283;44198;-40
2023/05/28 12:14:50;;;;;;;3.70;1.50;;;;;;;;;;107508;286;38532;-40
2023/05/28 12:17:25;;;;;;;4.20;1.40;;;;;;;;;;107584;286;39689;-40
2023/05/28 12:19:58;;;;;;;3.40;1.40;;;;;;;;;;107608;286;42942;-40
2023/05/28 12:22:31;;;;;;;3.20;1.40;;;;;;;;;;107530;286;42132;-40
2023/05/28 12:25:06;;;;;;;3.50;1.50;;;;;;;;;;107584;283;38813;-40
2023/05/28 12:27:40;;;;;;;2.90;1.30;;;;;;;;;;107629;283;39719;-40
2023/05/28 12:30:15;;;;;;;3.70;1.50;;;;;;;;;;107555;286;42911;-40
2023/05/28 12:32:50;;;;;;;3.60;1.40;;;;;;;;;;107654;286;43340;-41
2023/05/28 12:35:26;;;;;;;3.20;1.20;;;;;;;;;;107393;285;175484;-41
2023/05/28 12:38:00;;;;;;;3.50;1.30;;;;;;;;;;107529;286;39690;-40
2023/05/28 12:40:34;;;;;;;3.30;1.40;;;;;;;;;;107629;283;43007;-41
2023/05/28 12:43:10;;;;;;;3.70;1.50;;;;;;;;;;107528;286;42262;-40
2023/05/28 12:45:43;;;;;;;3.30;1.30;;;;;;;;;;107578;286;39101;-40
2023/05/28 12:48:18;;;;;;;3.20;1.20;;;;;;;;;;107595;286;39738;-40
2023/05/28 12:50:52;;;;;;;3.70;1.10;;;;;;;;;;107512;279;43030;-40
2023/05/28 12:53:29;;;;;;;3.10;1.30;;;;;;;;;;107599;283;42402;-40
2023/05/28 12:56:04;;;;;;;3.30;1.20;;;;;;;;;;107548;286;39833;-40
2023/05/28 12:58:38;;;;;;;2.90;1.10;;;;;;;;;;107559;283;39939;-40
2023/05/28 13:01:15;;;;;;;3.30;1.20;;;;;;;;;;107633;285;42923;-40
2023/05/28 13:03:51;;;;;;;3.10;1.20;;;;;;;;;;107583;283;43400;-40
2023/05/28 13:06:25;;;;;;;4.50;1.30;;;;;;;;;;107626;286;44370;-41
2023/05/28 13:08:59;;;;;;;2.70;1.00;;;;;;;;;;107386;286;39632;-40
2023/05/28 13:11:35;;;;;;;3.50;1.20;;;;;;;;;;107592;286;42913;-40
2023/05/28 13:14:12;;;;;;;3.10;1.30;;;;;;;;;;107588;283;42586;-41
2023/05/28 13:16:47;;;;;;;3.40;1.30;;;;;;;;;;107600;286;43879;-40
2023/05/28 13:19:26;;;;;;;3.10;1.30;;;;;;;;;;107557;286;40905;-40
2023/05/28 13:22:02;;;;;;;4.60;1.50;;;;;;;;;;107538;286;43030;-40
2023/05/28 13:24:37;;;;;;;3.40;1.30;;;;;;;;;;107559;286;42115;-38
2023/05/28 13:27:20;;;;;;;3.10;1.10;;;;;;;;;;107548;286;45979;-38
2023/05/28 13:29:55;;;;;;;4.50;1.40;;;;;;;;;;107541;286;41755;-39
2023/05/28 13:32:28;;;;;;;3.30;1.20;;;;;;;;;;107568;286;43036;-39
2023/05/28 13:35:09;;;;;;;3.40;1.20;;;;;;;;;;107515;286;41868;-39
2023/05/28 13:37:44;;;;;;;3.00;1.20;;;;;;;;;;107556;286;47227;-39
2023/05/28 13:40:21;;;;;;;4.00;1.50;;;;;;;;;;107602;286;39759;-38
2023/05/28 13:42:54;;;;;;;4.10;1.50;;;;;;;;;;107434;286;43003;-40
2023/05/28 13:45:28;;;;;;;3.40;1.20;;;;;;;;;;107558;286;43511;-41
2023/05/28 13:48:03;;;;;;;3.40;1.40;;;;;;;;;;107589;286;44945;-40
2023/05/28 13:50:37;;;;;;;3.30;1.30;;;;;;;;;;107569;283;39416;-40
2023/05/28 13:53:10;;;;;;;3.60;1.40;;;;;;;;;;107561;286;43480;-39
2023/05/28 13:55:43;;;;;;;3.50;1.40;;;;;;;;;;107552;278;43317;-39
2023/05/28 13:58:17;;;;;;;4.10;1.40;;;;;;;;;;107538;283;45000;-39
2023/05/28 14:00:50;;;;;;;4.10;1.30;;;;;;;;;;107546;286;40862;-39
2023/05/28 14:03:24;;;;;;;3.60;1.40;;;;;;;;;;107560;286;42962;-40
2023/05/28 14:05:57;;;;;;;4.40;1.40;;;;;;;;;;107514;283;42144;-40
2023/05/28 14:08:30;;;;;;;4.20;1.50;;;;;;;;;;107574;286;46165;-40
2023/05/28 14:11:04;;;;;;;4.60;1.50;;;;;;;;;;107505;282;39685;-42
2023/05/28 14:13:37;;;;;;;3.40;1.50;;;;;;;;;;107534;286;42660;-40
2023/05/28 14:16:10;;;;;;;4.00;1.50;;;;;;;;;;107573;286;42223;-40
2023/05/28 14:18:46;;;;;;;4.40;1.50;;;;;;;;;;107542;286;46444;-35
2023/05/28 14:21:20;;;;;;;4.00;1.60;;;;;;;;;;107576;283;40897;-36
2023/05/28 14:23:54;;;;;;;3.90;1.60;;;;;;;;;;107562;286;42997;-36
2023/05/28 14:26:27;;;;;;;4.20;1.60;;;;;;;;;;107488;286;43365;-36
2023/05/28 14:29:00;;;;;;;4.70;1.50;;;;;;;;;;107439;284;44511;-40
2023/05/28 14:31:34;;;;;;;4.30;1.60;;;;;;;;;;107550;286;39885;-37
2023/05/28 14:34:07;;;;;;;5.00;1.70;;;;;;;;;;107540;283;44065;-37
2023/05/28 14:36:41;;;;;;;4.50;1.50;;;;;;;;;;107551;283;42286;-37
2023/05/28 14:39:14;;;;;;;4.30;1.70;;;;;;;;;;107521;286;47314;-37
2023/05/28 14:41:47;;;;;;;3.60;1.50;;;;;;;;;;107590;283;40772;-37
2023/05/28 14:44:20;;;;;;;4.20;1.70;;;;;;;;;;107586;283;42935;-37
2023/05/28 14:46:54;;;;;;;4.50;1.90;;;;;;;;;;107483;286;42129;-37
2023/05/28 14:49:27;;;;;;;4.30;1.60;;;;;;;;;;107582;285;45226;-37
2023/05/28 14:52:24;;;;;;;4.50;1.80;;;;;;;;;;107559;286;39845;-37
2023/05/28 14:54:59;;;;;;;4.10;1.60;;;;;;;;;;107367;286;175527;-37
2023/05/28 14:57:35;;;;;;;3.80;1.80;;;;;;;;;;107503;283;42072;-37
2023/05/28 15:00:12;;;;;;;4.50;1.60;;;;;;;;;;107582;283;38789;-37
2023/05/28 15:02:45;;;;;;;4.60;1.80;;;;;;;;;;107544;286;39679;-36
2023/05/28 15:05:19;;;;;;;4.50;1.90;;;;;;;;;;107568;283;42910;-37
2023/05/28 15:07:53;;;;;;;4.20;1.60;;;;;;;;;;107503;285;41986;-37
2023/05/28 15:10:26;;;;;;;4.70;1.90;;;;;;;;;;107508;286;38807;-36
2023/05/28 15:12:59;;;;;;;4.40;1.90;;;;;;;;;;107431;286;39483;-37
2023/05/28 15:15:32;;;;;;;4.70;2.00;;;;;;;;;;107546;285;43106;-37
2023/05/28 15:18:06;;;;;;;4.60;2.10;;;;;;;;;;107513;286;42188;-36
2023/05/28 15:20:39;;;;;;;4.40;1.90;;;;;;;;;;107645;285;38609;-37
2023/05/28 15:23:14;;;;;;;5.10;2.10;;;;;;;;;;107572;286;39717;-36
2023/05/28 15:25:48;;;;;;;5.10;1.90;;;;;;;;;;107562;283;42860;-37
2023/05/28 15:28:23;;;;;;;4.50;1.80;;;;;;;;;;106903;283;890987;-36
2023/05/28 15:30:57;;;;;;;4.70;1.90;;;;;;;;;;107435;283;39938;-36